This is the latest recevied weather packets stored in our database for station/object K7OLI-13. If no packets are shown the sender has not sent any weather packets the latest 10 day(s).
| Time | Temp. | Humidity | Pressure | Rain* | Wind** | Luminosity | Snow |
|---|---|---|---|---|---|---|---|
| 1777600825 | 22.22° C | 53% | 1010.1 hPa | 0 mm | - | - | - |
| 1777600233 | 23.33° C | 51% | 1010.1 hPa | 0 mm | - | - | - |
| 1777598419 | 26.67° C | 39% | 1010.2 hPa | 0 mm | - | - | - |
| 1777597824 | 27.22° C | 38% | 1010.2 hPa | 0 mm | - | - | - |
| 1777597235 | 27.22° C | 37% | 1010.2 hPa | 0 mm | - | - | - |
| 1777596624 | 27.22° C | 37% | 1011.2 hPa | 0 mm | - | - | - |
| 1777593053 | 26.67° C | 38% | 1011.2 hPa | 0 mm | - | - | - |
| 1777590666 | 27.22° C | 40% | 1012.2 hPa | 0 mm | - | - | - |
| 1777590037 | 26.67° C | 39% | 1012.2 hPa | 0 mm | - | - | - |
| 1777587631 | 26.67° C | 41% | 1013.2 hPa | 0 mm | - | - | - |
| 1777585225 | 25.56° C | 45% | 1013.2 hPa | 0 mm | - | - | - |
| 1777584649 | 25° C | 45% | 1013.2 hPa | 0 mm | - | - | - |
| 1777583431 | 24.44° C | 46% | 1013.2 hPa | 0 mm | - | - | - |
| 1777581026 | 23.89° C | 47% | 1014.2 hPa | 0 mm | - | - | - |
| 1777580474 | 23.33° C | 46% | 1014.2 hPa | 0 mm | - | - | - |
| 1777579864 | 23.33° C | 48% | 1014.2 hPa | 0 mm | - | - | - |
| 1777574735 | 20° C | 56% | 1015.2 hPa | 0 mm | - | - | - |
| 1777566043 | 16.11° C | 70% | 1016.1 hPa | 0 mm | - | - | - |
| 1777563023 | 13.89° C | 78% | 1016.1 hPa | 0 mm | - | - | - |
| 1777560636 | 11.67° C | 86% | 1016.2 hPa | 0 mm | - | - | - |
| 1777558231 | 8.89° C | 94% | 1016.1 hPa | 0 mm | - | - | - |
| 1777551038 | 6.11° C | 99% | 1015.1 hPa | 0 mm | - | - | - |
| 1777544430 | 7.22° C | 97% | 1015.1 hPa | 0 mm | - | - | - |
| 1777536623 | 8.89° C | 92% | 1016.1 hPa | 0 mm | - | - | - |
| 1777534828 | 9.44° C | 90% | 1016.1 hPa | 0 mm | - | - | - |
* Rain latest hour (hover to see other rain measurements)
** Current wind speed in m/s (hover to see current wind gust speed)